Time;durP1;ratioP1;P1;durP2;ratioP2;P2;SDS_P1;SDS_P2;PMS_P1;PMS_P2;Temp;Humidity;BMP_temperature;BMP_pressure;BME280_temperature;BME280_humidity;BME280_pressure;Samples;Min_cycle;Max_cycle;Signal;HPM_P1;HPM_P2
2023/04/27 00:01:48;;;;;;;152.02;144.82;;;1.00;99.90;;;;;;5099170;28;20484;-66
2023/04/27 00:04:15;;;;;;;150.05;143.50;;;1.10;99.90;;;;;;5070597;28;20578;-65
2023/04/27 00:06:41;;;;;;;154.18;147.38;;;1.10;99.90;;;;;;5086932;28;20475;-65
2023/04/27 00:09:07;;;;;;;153.18;146.32;;;1.20;99.90;;;;;;5105954;28;20048;-65
2023/04/27 00:11:33;;;;;;;147.05;140.55;;;1.30;99.90;;;;;;5088525;28;20042;-65
2023/04/27 00:13:59;;;;;;;149.80;143.25;;;1.30;99.90;;;;;;5078549;28;20387;-65
2023/04/27 00:16:25;;;;;;;151.38;144.48;;;1.40;99.90;;;;;;5108162;28;20036;-65
2023/04/27 00:18:51;;;;;;;151.05;144.65;;;1.40;99.90;;;;;;5088847;28;20120;-65
2023/04/27 00:21:17;;;;;;;145.88;139.38;;;1.50;99.90;;;;;;5110422;28;20035;-65
2023/04/27 00:23:42;;;;;;;142.35;136.05;;;1.50;99.90;;;;;;5073554;28;20043;-65
2023/04/27 00:26:08;;;;;;;140.30;134.15;;;1.50;99.90;;;;;;5087199;28;20070;-65
2023/04/27 00:28:34;;;;;;;122.50;117.20;;;1.60;99.90;;;;;;5087681;28;20048;-65
2023/04/27 00:31:02;;;;;;;108.65;103.80;;;1.60;99.90;;;;;;5087217;28;20037;-65
2023/04/27 00:33:28;;;;;;;144.35;138.05;;;1.70;99.90;;;;;;5076455;28;20058;-66
2023/04/27 00:35:54;;;;;;;154.98;148.32;;;1.80;99.90;;;;;;5086288;28;20052;-66
2023/04/27 00:38:19;;;;;;;161.32;153.98;;;1.70;99.90;;;;;;5091290;28;20036;-65
2023/04/27 00:40:45;;;;;;;160.40;153.60;;;1.70;99.90;;;;;;5087119;28;20517;-65
2023/04/27 00:43:11;;;;;;;163.50;156.20;;;1.80;99.90;;;;;;5089302;28;20043;-65
2023/04/27 00:45:41;;;;;;;166.38;159.13;;;1.70;99.90;;;;;;5071629;28;20036;-65
2023/04/27 00:48:07;;;;;;;165.57;158.43;;;1.70;99.90;;;;;;5080589;28;20056;-65
2023/04/27 00:50:33;;;;;;;163.48;156.48;;;1.70;99.90;;;;;;5086046;28;20028;-65
2023/04/27 00:53:00;;;;;;;168.95;161.65;;;1.70;99.90;;;;;;5084681;28;20445;-65
2023/04/27 00:55:26;;;;;;;160.70;153.45;;;1.70;99.90;;;;;;5084905;28;20695;-65
2023/04/27 00:57:52;;;;;;;166.88;159.30;;;1.60;99.90;;;;;;5085071;28;20047;-65
2023/04/27 01:00:17;;;;;;;163.85;156.50;;;1.60;99.90;;;;;;5086614;28;20036;-65
2023/04/27 01:02:43;;;;;;;152.60;145.88;;;1.50;99.90;;;;;;5086950;28;20044;-65
2023/04/27 01:05:09;;;;;;;155.38;148.55;;;1.50;99.90;;;;;;5084593;28;20058;-65
2023/04/27 01:07:39;;;;;;;151.45;144.80;;;1.40;99.90;;;;;;5067847;28;20042;-65
2023/04/27 01:10:06;;;;;;;137.45;131.35;;;1.40;99.90;;;;;;5104509;28;20032;-65
2023/04/27 01:12:32;;;;;;;138.82;132.68;;;1.30;99.90;;;;;;5091040;28;20036;-65
2023/04/27 01:14:57;;;;;;;130.65;124.70;;;1.20;99.90;;;;;;5071750;28;20039;-65
2023/04/27 01:17:23;;;;;;;127.88;122.20;;;1.20;99.90;;;;;;5086034;28;20411;-65
2023/04/27 01:19:50;;;;;;;125.72;120.05;;;1.10;99.90;;;;;;5067022;28;20051;-65
2023/04/27 01:22:16;;;;;;;126.55;121.05;;;1.00;99.90;;;;;;5069610;28;20491;-65
2023/04/27 01:24:42;;;;;;;136.43;129.90;;;1.00;99.90;;;;;;5087934;28;20032;-65
2023/04/27 01:27:07;;;;;;;137.68;131.55;;;0.90;99.90;;;;;;5084242;28;20508;-65
2023/04/27 01:29:33;;;;;;;136.80;130.73;;;0.80;99.90;;;;;;5056372;28;20082;-65
2023/04/27 01:31:58;;;;;;;143.65;137.32;;;0.80;99.90;;;;;;5056980;28;20131;-65
2023/04/27 01:34:24;;;;;;;138.88;132.68;;;0.80;99.90;;;;;;5083772;28;20483;-65
2023/04/27 01:36:50;;;;;;;148.18;141.55;;;0.70;99.90;;;;;;5084721;28;20464;-65
2023/04/27 01:39:15;;;;;;;146.40;140.15;;;0.70;99.90;;;;;;5084675;28;20043;-65
2023/04/27 01:41:41;;;;;;;145.57;138.70;;;0.70;99.90;;;;;;5068873;28;20552;-65
2023/04/27 01:44:07;;;;;;;147.88;141.32;;;0.60;99.90;;;;;;5059515;28;20480;-65
2023/04/27 01:46:32;;;;;;;152.18;145.25;;;0.60;99.90;;;;;;5085746;28;20085;-66
2023/04/27 01:48:58;;;;;;;152.20;145.52;;;0.50;99.90;;;;;;5102593;28;20033;-65
2023/04/27 01:51:24;;;;;;;151.55;144.95;;;0.50;99.90;;;;;;5080472;28;20040;-65
2023/04/27 01:53:49;;;;;;;148.35;141.30;;;0.50;99.90;;;;;;5079298;28;20055;-65
2023/04/27 01:56:15;;;;;;;154.30;147.68;;;0.50;99.90;;;;;;5084245;28;20395;-65
2023/04/27 01:58:41;;;;;;;150.75;144.07;;;0.50;99.90;;;;;;5080643;28;20043;-65
2023/04/27 02:01:06;;;;;;;149.55;143.07;;;0.40;99.90;;;;;;5085739;28;20036;-65
2023/04/27 02:03:32;;;;;;;149.95;143.02;;;0.40;99.90;;;;;;5082701;28;20044;-65
2023/04/27 02:05:57;;;;;;;141.70;135.48;;;0.30;99.90;;;;;;5063741;28;20047;-65
2023/04/27 02:08:23;;;;;;;150.85;143.93;;;0.30;99.90;;;;;;5061930;28;20781;-65
2023/04/27 02:10:49;;;;;;;147.73;141.38;;;0.30;99.90;;;;;;5087406;28;20393;-65
2023/04/27 02:13:14;;;;;;;147.82;141.35;;;0.30;99.90;;;;;;5081842;28;20043;-65
2023/04/27 02:15:40;;;;;;;136.77;130.88;;;0.30;99.90;;;;;;5081060;28;20078;-65
2023/04/27 02:18:06;;;;;;;137.02;130.80;;;0.20;99.90;;;;;;5079577;28;20630;-65
2023/04/27 02:20:32;;;;;;;142.43;136.05;;;0.30;99.90;;;;;;5084096;28;20039;-65
2023/04/27 02:22:58;;;;;;;143.75;137.25;;;0.30;99.90;;;;;;5081568;28;20078;-65
2023/04/27 02:25:23;;;;;;;142.80;136.07;;;0.30;99.90;;;;;;5068375;28;20376;-65
2023/04/27 02:27:49;;;;;;;144.82;137.73;;;0.30;99.90;;;;;;5105400;28;20042;-65
2023/04/27 02:30:15;;;;;;;143.27;136.38;;;0.30;99.90;;;;;;5092891;28;20096;-65
2023/04/27 02:32:41;;;;;;;142.60;135.95;;;0.20;99.90;;;;;;5070705;28;20114;-65
2023/04/27 02:35:07;;;;;;;140.15;134.05;;;0.20;99.90;;;;;;5084998;28;20375;-66
2023/04/27 02:37:33;;;;;;;140.05;133.73;;;0.20;99.90;;;;;;5086284;28;20039;-65
2023/04/27 02:39:59;;;;;;;143.00;136.27;;;0.10;99.90;;;;;;5087529;28;20133;-65
2023/04/27 02:42:25;;;;;;;141.38;134.65;;;0.20;99.90;;;;;;5088950;28;20043;-65
2023/04/27 02:44:51;;;;;;;134.95;128.70;;;0.10;99.90;;;;;;5068818;28;20593;-65
2023/04/27 02:47:17;;;;;;;136.90;130.70;;;0.10;99.90;;;;;;5072625;28;20142;-65
2023/04/27 02:49:42;;;;;;;136.88;130.88;;;0.00;99.90;;;;;;5099124;28;20078;-65
2023/04/27 02:52:08;;;;;;;136.63;130.30;;;0.00;99.90;;;;;;5059034;28;20044;-65
2023/04/27 02:54:34;;;;;;;136.52;130.38;;;0.00;99.90;;;;;;5083347;28;20086;-65
2023/04/27 02:57:00;;;;;;;133.07;126.90;;;0.00;99.90;;;;;;5101692;28;20542;-65
2023/04/27 02:59:26;;;;;;;133.55;127.47;;;0.00;99.90;;;;;;5105508;28;20247;-65
2023/04/27 03:01:51;;;;;;;129.15;123.35;;;0.10;99.90;;;;;;5084928;28;20047;-65
2023/04/27 03:04:17;;;;;;;126.38;120.55;;;0.10;99.90;;;;;;5087941;28;20039;-65
2023/04/27 03:06:43;;;;;;;129.77;123.80;;;0.10;99.90;;;;;;5063746;28;20104;-65
2023/04/27 03:09:09;;;;;;;128.40;122.30;;;0.10;99.90;;;;;;5105829;28;20047;-65
2023/04/27 03:11:36;;;;;;;132.68;126.53;;;0.20;99.90;;;;;;5079754;28;20058;-65
2023/04/27 03:14:02;;;;;;;130.55;124.43;;;0.10;99.90;;;;;;5089345;28;20040;-65
2023/04/27 03:16:30;;;;;;;130.68;124.15;;;0.10;99.90;;;;;;5082834;28;20081;-65
2023/04/27 03:18:56;;;;;;;127.63;121.25;;;0.20;99.90;;;;;;5087399;28;20559;-65
2023/04/27 03:21:21;;;;;;;126.28;120.32;;;0.10;99.90;;;;;;5087488;28;20047;-65
2023/04/27 03:23:47;;;;;;;125.10;119.20;;;0.00;99.90;;;;;;5088245;28;20390;-65
2023/04/27 03:26:13;;;;;;;124.30;118.50;;;0.00;99.90;;;;;;5105820;28;20079;-65
2023/04/27 03:28:39;;;;;;;124.13;118.47;;;0.00;99.90;;;;;;5106027;28;20081;-65
2023/04/27 03:31:06;;;;;;;122.28;116.57;;;0.00;99.90;;;;;;5088851;28;20134;-65
2023/04/27 03:33:32;;;;;;;121.28;115.78;;;-0.10;99.90;;;;;;5079700;28;20046;-65
2023/04/27 03:35:58;;;;;;;121.15;115.38;;;-0.10;99.90;;;;;;5086195;28;20044;-65
2023/04/27 03:38:24;;;;;;;120.68;115.18;;;-0.10;99.90;;;;;;5082694;28;20070;-65
2023/04/27 03:40:50;;;;;;;119.68;114.03;;;-0.10;99.90;;;;;;5089885;28;20112;-66
2023/04/27 03:43:17;;;;;;;122.00;116.43;;;-0.10;99.90;;;;;;5087903;28;20040;-65
2023/04/27 03:45:42;;;;;;;129.82;124.00;;;-0.20;99.90;;;;;;5105774;28;20039;-65
2023/04/27 03:48:08;;;;;;;126.22;120.35;;;-0.10;99.90;;;;;;5083759;28;20032;-65
2023/04/27 03:50:34;;;;;;;128.55;122.75;;;-0.10;99.90;;;;;;5066748;28;20046;-66
2023/04/27 03:52:59;;;;;;;129.20;123.20;;;-0.10;99.90;;;;;;5091824;28;20027;-65
2023/04/27 03:55:25;;;;;;;127.00;121.13;;;-0.20;99.90;;;;;;5093899;28;20035;-65
2023/04/27 03:57:51;;;;;;;126.50;120.50;;;-0.20;99.90;;;;;;5095248;28;20039;-65
2023/04/27 04:00:17;;;;;;;128.68;122.75;;;-0.20;99.90;;;;;;5096986;28;20089;-65
2023/04/27 04:02:43;;;;;;;129.02;123.03;;;-0.20;99.90;;;;;;5103091;27;20028;-65
2023/04/27 04:05:09;;;;;;;130.07;123.90;;;-0.30;99.90;;;;;;5087269;28;20055;-65
2023/04/27 04:07:35;;;;;;;135.50;128.43;;;-0.30;99.90;;;;;;5094001;28;20075;-65
2023/04/27 04:10:01;;;;;;;135.05;128.18;;;-0.30;99.90;;;;;;5095832;28;20318;-65
2023/04/27 04:12:27;;;;;;;133.48;127.10;;;-0.20;99.90;;;;;;5095722;28;20049;-65
2023/04/27 04:14:52;;;;;;;131.65;125.70;;;-0.20;99.90;;;;;;5095471;28;20052;-65
2023/04/27 04:17:18;;;;;;;133.45;127.43;;;-0.20;99.90;;;;;;5090681;28;20039;-65
2023/04/27 04:19:43;;;;;;;131.05;125.05;;;-0.30;99.90;;;;;;5090156;28;20135;-65
2023/04/27 04:22:09;;;;;;;131.88;125.95;;;-0.30;99.90;;;;;;5103049;28;20471;-65
2023/04/27 04:24:35;;;;;;;135.00;128.75;;;-0.30;99.90;;;;;;5093172;28;20487;-65
2023/04/27 04:27:01;;;;;;;135.57;129.30;;;-0.30;99.90;;;;;;5087322;28;20458;-65
2023/04/27 04:29:27;;;;;;;134.73;128.32;;;-0.20;99.90;;;;;;5073306;28;20048;-65
2023/04/27 04:31:54;;;;;;;136.10;129.82;;;-0.20;99.90;;;;;;5089520;28;20055;-65
2023/04/27 04:34:21;;;;;;;138.20;131.35;;;-0.20;99.90;;;;;;5088985;28;20043;-65
2023/04/27 04:36:50;;;;;;;135.30;128.88;;;-0.20;99.90;;;;;;5089957;28;20068;-65
2023/04/27 04:39:21;;;;;;;138.05;131.57;;;-0.20;99.90;;;;;;5091814;28;20448;-65
2023/04/27 04:41:48;;;;;;;138.85;132.25;;;-0.20;99.90;;;;;;5079989;28;20040;-65
2023/04/27 04:44:14;;;;;;;132.05;125.88;;;-0.10;99.90;;;;;;5083762;28;20047;-65
2023/04/27 04:46:40;;;;;;;130.85;124.53;;;-0.10;99.90;;;;;;5086938;28;20540;-65
2023/04/27 04:49:06;;;;;;;129.10;123.03;;;0.00;99.90;;;;;;5070686;28;20083;-65
2023/04/27 04:51:32;;;;;;;131.25;125.05;;;0.00;99.90;;;;;;5091765;28;20076;-65
2023/04/27 04:53:58;;;;;;;131.02;125.07;;;0.10;99.90;;;;;;5078081;28;20051;-65
2023/04/27 04:56:23;;;;;;;129.85;123.78;;;0.20;99.90;;;;;;5088160;28;20052;-65
2023/04/27 04:58:49;;;;;;;129.88;123.80;;;0.30;99.90;;;;;;5089137;28;20047;-65
2023/04/27 05:01:15;;;;;;;126.97;121.07;;;0.40;99.90;;;;;;5090777;28;20032;-65
2023/04/27 05:03:40;;;;;;;121.20;115.40;;;0.40;99.90;;;;;;5077460;28;20048;-65
2023/04/27 05:06:06;;;;;;;124.15;117.95;;;0.60;99.90;;;;;;5066172;28;20048;-65
2023/04/27 05:08:32;;;;;;;121.30;115.50;;;0.70;99.90;;;;;;5087119;28;20040;-65
2023/04/27 05:10:57;;;;;;;114.43;108.85;;;0.80;99.90;;;;;;5082395;28;20051;-65
2023/04/27 05:13:25;;;;;;;109.22;103.93;;;0.90;99.90;;;;;;5083373;28;20036;-65
2023/04/27 05:15:51;;;;;;;104.00;98.82;;;1.00;99.90;;;;;;5084662;28;20040;-65
2023/04/27 05:18:17;;;;;;;101.22;95.80;;;1.10;99.90;;;;;;5084643;28;20519;-65
2023/04/27 05:20:43;;;;;;;102.70;97.72;;;1.20;99.90;;;;;;5088642;28;20036;-65
2023/04/27 05:23:09;;;;;;;105.60;100.35;;;1.30;99.90;;;;;;5088280;28;20047;-66
2023/04/27 05:25:40;;;;;;;109.07;104.10;;;1.40;99.90;;;;;;5085060;28;20059;-65
2023/04/27 05:28:10;;;;;;;108.20;103.05;;;1.50;99.90;;;;;;5103830;28;20395;-65
2023/04/27 05:30:35;;;;;;;109.47;103.78;;;1.60;99.90;;;;;;5086283;28;20036;-66
2023/04/27 05:33:02;;;;;;;113.90;108.10;;;1.60;99.90;;;;;;5081805;28;20040;-65
2023/04/27 05:35:31;;;;;;;118.90;113.30;;;1.70;99.90;;;;;;5063555;28;20108;-65
2023/04/27 05:37:57;;;;;;;123.97;118.20;;;1.70;99.90;;;;;;5086418;28;20055;-65
2023/04/27 05:40:23;;;;;;;126.82;121.03;;;1.80;99.90;;;;;;5087895;28;20342;-66
2023/04/27 05:42:49;;;;;;;122.53;117.03;;;2.10;99.90;;;;;;5083338;28;20100;-65
2023/04/27 05:45:15;;;;;;;132.98;126.78;;;2.70;99.90;;;;;;5086458;28;20319;-66
2023/04/27 05:47:41;;;;;;;136.40;130.10;;;3.00;99.90;;;;;;5084488;28;20052;-66
2023/04/27 05:50:07;;;;;;;143.55;136.85;;;3.30;99.90;;;;;;5085872;28;20119;-66
2023/04/27 05:52:33;;;;;;;147.98;140.90;;;3.60;99.90;;;;;;5082383;28;20036;-66
2023/04/27 05:54:58;;;;;;;166.13;158.75;;;3.60;99.90;;;;;;5085743;28;20092;-66
2023/04/27 05:57:25;;;;;;;160.15;152.95;;;3.70;99.90;;;;;;5088127;28;20120;-65
2023/04/27 05:59:52;;;;;;;156.13;149.05;;;3.70;99.90;;;;;;5085243;28;20597;-66
2023/04/27 06:02:18;;;;;;;156.10;149.30;;;3.80;99.90;;;;;;5083924;28;20201;-66
2023/04/27 06:04:45;;;;;;;161.50;154.40;;;3.90;99.90;;;;;;5086470;28;20044;-66
2023/04/27 06:07:12;;;;;;;141.27;134.68;;;4.00;99.90;;;;;;5070485;28;20032;-66
2023/04/27 06:09:37;;;;;;;149.35;142.15;;;4.20;99.90;;;;;;5080211;28;20437;-66
2023/04/27 06:12:04;;;;;;;125.38;119.78;;;4.40;99.90;;;;;;5082593;28;20040;-66
2023/04/27 06:14:30;;;;;;;95.55;91.07;;;4.60;99.90;;;;;;5085840;28;20051;-66
2023/04/27 06:16:56;;;;;;;97.25;92.55;;;4.80;99.90;;;;;;5076078;28;20076;-66
2023/04/27 06:19:22;;;;;;;82.85;78.38;;;5.40;99.90;;;;;;5084988;28;20125;-66
2023/04/27 06:21:49;;;;;;;81.15;76.95;;;6.20;99.90;;;;;;5079987;28;20041;-66
2023/04/27 06:24:14;;;;;;;69.28;65.55;;;7.20;99.90;;;;;;5086284;28;20031;-66
2023/04/27 06:26:40;;;;;;;69.32;65.70;;;7.70;99.90;;;;;;5083555;28;20097;-66
2023/04/27 06:29:06;;;;;;;70.22;66.40;;;7.90;99.90;;;;;;5081707;28;20101;-66
2023/04/27 06:31:33;;;;;;;64.55;61.05;;;8.20;99.90;;;;;;5077480;28;20058;-66
2023/04/27 06:33:59;;;;;;;56.30;52.92;;;8.40;99.90;;;;;;5085307;28;20051;-66
2023/04/27 06:36:28;;;;;;;46.10;43.60;;;8.40;99.90;;;;;;5066529;28;20044;-66
2023/04/27 06:38:55;;;;;;;43.80;40.90;;;8.50;99.90;;;;;;5084884;28;20052;-66
2023/04/27 06:41:24;;;;;;;48.35;45.50;;;8.70;99.90;;;;;;5080601;28;20376;-66
2023/04/27 06:43:50;;;;;;;46.40;43.58;;;9.10;99.90;;;;;;5097584;28;20039;-66
2023/04/27 06:46:16;;;;;;;44.78;42.20;;;9.50;99.90;;;;;;5084556;28;20051;-66
2023/04/27 06:48:42;;;;;;;64.28;60.72;;;9.70;99.90;;;;;;5083187;28;20065;-66
2023/04/27 06:51:08;;;;;;;69.68;66.18;;;10.40;99.90;;;;;;5085286;28;20156;-69
2023/04/27 06:53:33;;;;;;;64.32;60.83;;;11.30;99.90;;;;;;5061356;28;20555;-68
2023/04/27 06:55:59;;;;;;;78.03;74.45;;;12.00;99.90;;;;;;5069617;28;20097;-67
2023/04/27 06:58:26;;;;;;;77.05;73.22;;;12.50;99.90;;;;;;5081792;28;20053;-68
2023/04/27 07:00:52;;;;;;;102.72;98.22;;;13.00;99.90;;;;;;5080515;28;20408;-67
2023/04/27 07:03:18;;;;;;;96.80;92.57;;;13.30;99.90;;;;;;5065285;28;20108;-66
2023/04/27 07:05:43;;;;;;;84.63;80.68;;;13.00;99.90;;;;;;5080678;28;20040;-66
2023/04/27 07:08:09;;;;;;;61.35;58.25;;;12.20;99.90;;;;;;5086445;28;20123;-66
2023/04/27 07:10:35;;;;;;;61.88;58.90;;;11.40;99.90;;;;;;5081994;28;20036;-66
2023/04/27 07:13:01;;;;;;;51.55;49.08;;;10.90;99.90;;;;;;5084388;28;20385;-66
2023/04/27 07:15:26;;;;;;;41.20;39.05;;;10.60;99.90;;;;;;5068943;28;20036;-66
2023/04/27 07:17:55;;;;;;;43.30;41.05;;;10.30;99.90;;;;;;5086653;28;20040;-66
2023/04/27 07:20:21;;;;;;;40.00;37.78;;;9.90;99.90;;;;;;5064675;28;20040;-66
2023/04/27 07:22:47;;;;;;;65.97;62.70;;;9.50;99.90;;;;;;5084529;28;20039;-66
2023/04/27 07:25:13;;;;;;;49.55;46.95;;;9.30;99.90;;;;;;5080460;28;20075;-66
2023/04/27 07:27:40;;;;;;;73.15;69.63;;;9.30;99.90;;;;;;5101144;28;20288;-66
2023/04/27 07:30:08;;;;;;;94.97;90.72;;;9.20;99.90;;;;;;5088849;28;20112;-66
2023/04/27 07:32:34;;;;;;;46.33;43.72;;;9.10;99.90;;;;;;5089185;28;20407;-66
2023/04/27 07:35:00;;;;;;;58.25;55.20;;;9.10;99.90;;;;;;5089374;28;20123;-66
2023/04/27 07:37:27;;;;;;;59.63;56.83;;;9.10;99.90;;;;;;5065197;28;20036;-66
2023/04/27 07:39:53;;;;;;;59.25;56.22;;;9.00;99.90;;;;;;5106870;28;20505;-66
2023/04/27 07:42:21;;;;;;;76.13;72.72;;;9.00;99.90;;;;;;5083369;28;20040;-66
2023/04/27 07:44:49;;;;;;;64.47;61.30;;;9.00;99.90;;;;;;5102041;28;20114;-66
2023/04/27 07:47:15;;;;;;;72.68;69.22;;;9.00;99.90;;;;;;5068126;28;20131;-66
2023/04/27 07:49:40;;;;;;;34.78;32.97;;;9.10;99.90;;;;;;5085691;28;20092;-66
2023/04/27 07:52:07;;;;;;;39.60;37.55;;;9.20;99.90;;;;;;5066382;28;20043;-66
2023/04/27 07:54:33;;;;;;;33.00;31.10;;;9.20;99.90;;;;;;5105883;28;20126;-66
2023/04/27 07:56:59;;;;;;;60.83;58.08;;;9.20;99.90;;;;;;5104942;28;20037;-66
2023/04/27 07:59:28;;;;;;;35.55;33.50;;;9.20;99.90;;;;;;5086844;28;20046;-66
2023/04/27 08:01:54;;;;;;;35.28;33.42;;;9.20;99.90;;;;;;5087684;28;20067;-66
2023/04/27 08:04:19;;;;;;;36.15;34.30;;;9.20;99.90;;;;;;5087222;28;20118;-66
2023/04/27 08:06:45;;;;;;;33.63;31.90;;;9.20;99.90;;;;;;5084767;28;20505;-66
2023/04/27 08:09:11;;;;;;;45.78;43.45;;;9.20;99.90;;;;;;5071303;28;20043;-66
2023/04/27 08:11:36;;;;;;;33.30;31.55;;;9.30;99.90;;;;;;5088189;28;20541;-66
2023/04/27 08:14:02;;;;;;;35.60;33.70;;;9.30;99.90;;;;;;5100850;28;20061;-66
2023/04/27 08:16:28;;;;;;;33.35;31.65;;;9.30;99.90;;;;;;5068300;28;20532;-66
2023/04/27 08:18:53;;;;;;;35.22;33.45;;;9.40;99.90;;;;;;5073473;28;20040;-65
2023/04/27 08:21:19;;;;;;;43.00;40.88;;;9.50;99.90;;;;;;5098663;28;20074;-65
2023/04/27 08:23:44;;;;;;;55.30;52.80;;;9.50;99.90;;;;;;5077808;28;20391;-65
2023/04/27 08:26:15;;;;;;;35.75;33.95;;;9.60;99.90;;;;;;5082180;28;20054;-65
2023/04/27 08:28:40;;;;;;;30.80;29.20;;;9.70;99.90;;;;;;5070939;28;20051;-66
2023/04/27 08:31:06;;;;;;;32.58;30.52;;;9.80;99.90;;;;;;5069231;28;20412;-66
2023/04/27 08:33:32;;;;;;;34.35;32.55;;;9.80;99.90;;;;;;5104745;28;20066;-65
2023/04/27 08:35:57;;;;;;;33.60;31.85;;;9.90;99.90;;;;;;5100325;28;20119;-65
2023/04/27 08:38:23;;;;;;;26.33;24.63;;;10.00;99.90;;;;;;5086008;28;20036;-65
2023/04/27 08:40:48;;;;;;;32.08;30.40;;;10.10;99.90;;;;;;5089043;28;20043;-65
2023/04/27 08:43:14;;;;;;;30.60;29.05;;;10.30;99.90;;;;;;5109551;28;20047;-66
2023/04/27 08:45:47;;;;;;;26.25;24.83;;;10.60;99.90;;;;;;5091565;28;20035;-65
2023/04/27 08:48:12;;;;;;;32.35;30.40;;;11.40;99.90;;;;;;5091688;28;20027;-66
2023/04/27 08:50:42;;;;;;;23.25;21.90;;;12.30;99.10;;;;;;5080569;28;20083;-66
2023/04/27 08:53:20;;;;;;;29.63;27.95;;;13.10;97.40;;;;;;5086061;28;20059;-65
2023/04/27 08:55:46;;;;;;;23.02;21.63;;;13.60;95.90;;;;;;5091177;28;20383;-66
2023/04/27 08:58:11;;;;;;;20.02;18.52;;;14.00;94.20;;;;;;5091826;28;20050;-65
2023/04/27 09:00:40;;;;;;;28.70;27.05;;;14.30;91.70;;;;;;5090815;28;20038;-66
2023/04/27 09:03:06;;;;;;;24.08;22.52;;;14.50;91.00;;;;;;5074910;28;20036;-65
2023/04/27 09:05:32;;;;;;;23.05;21.55;;;14.60;89.50;;;;;;5066880;28;20047;-66
2023/04/27 09:08:07;;;;;;;24.88;23.48;;;14.80;88.50;;;;;;5068589;28;20723;-66
2023/04/27 09:10:48;;;;;;;;;;;14.90;88.50;;;;;;5089797;28;20502;-66
2023/04/27 09:13:14;;;;;;;20.25;18.98;;;15.00;89.40;;;;;;5085071;28;20355;-66
2023/04/27 09:15:48;;;;;;;17.92;16.73;;;15.20;85.20;;;;;;5072288;28;20123;-66
2023/04/27 09:18:21;;;;;;;20.05;18.85;;;15.00;80.90;;;;;;5066856;28;20506;-66
2023/04/27 09:20:52;;;;;;;18.50;17.20;;;14.80;81.80;;;;;;5099091;28;20039;-66
2023/04/27 09:23:31;;;;;;;18.85;17.67;;;14.30;81.90;;;;;;5102611;28;20480;-66
2023/04/27 09:25:59;;;;;;;15.57;14.48;;;14.00;82.30;;;;;;5070207;28;20627;-66
2023/04/27 09:28:29;;;;;;;19.58;18.27;;;14.20;82.70;;;;;;5091315;28;20080;-66
2023/04/27 09:30:57;;;;;;;16.67;15.43;;;14.30;83.90;;;;;;5090789;28;20119;-66
2023/04/27 09:33:31;;;;;;;16.50;15.18;;;14.60;80.10;;;;;;5090631;28;20158;-66
2023/04/27 09:36:02;;;;;;;18.08;16.85;;;14.70;76.80;;;;;;5080577;28;20039;-66
2023/04/27 09:38:29;;;;;;;17.75;16.40;;;14.70;79.40;;;;;;5082659;28;20067;-66
2023/04/27 09:40:56;;;;;;;16.70;15.20;;;14.80;78.90;;;;;;5091552;28;20126;-66
2023/04/27 09:43:23;;;;;;;18.10;16.65;;;14.70;78.70;;;;;;5102482;28;20067;-65
2023/04/27 09:45:49;;;;;;;19.70;18.30;;;14.70;77.70;;;;;;5090174;28;20055;-66
2023/04/27 09:48:17;;;;;;;16.15;14.88;;;14.80;80.50;;;;;;5084826;28;20532;-65
2023/04/27 09:50:44;;;;;;;15.73;14.35;;;15.00;76.10;;;;;;5085678;28;20055;-65
2023/04/27 09:53:15;;;;;;;16.58;15.10;;;15.10;78.30;;;;;;5084331;28;20074;-66
2023/04/27 09:56:19;;;;;;;18.20;16.77;;;15.30;79.00;;;;;;5085728;28;20513;-66
2023/04/27 09:58:47;;;;;;;15.88;14.57;;;15.40;78.20;;;;;;5089119;28;20090;-65
2023/04/27 10:01:32;;;;;;;17.08;15.85;;;15.20;76.20;;;;;;5078126;28;20583;-66
2023/04/27 10:04:28;;;;;;;16.42;15.18;;;15.10;77.70;;;;;;5089291;28;20080;-66
2023/04/27 10:07:00;;;;;;;15.32;14.13;;;15.00;75.90;;;;;;5090189;28;20047;-66
2023/04/27 10:09:33;;;;;;;15.13;13.82;;;14.90;77.40;;;;;;5077823;28;20055;-66
2023/04/27 10:12:20;;;;;;;15.07;13.93;;;14.90;77.50;;;;;;5083669;28;20122;-66
2023/04/27 10:14:53;;;;;;;18.02;16.75;;;14.90;73.90;;;;;;5105975;28;20070;-66
2023/04/27 10:17:34;;;;;;;15.87;14.47;;;14.70;77.40;;;;;;5068671;28;20036;-66
2023/04/27 10:20:08;;;;;;;17.08;15.73;;;14.70;75.20;;;;;;5080438;28;20695;-65
2023/04/27 10:22:45;;;;;;;19.40;18.00;;;14.70;77.20;;;;;;5089505;28;20446;-66
2023/04/27 10:25:22;;;;;;;18.98;17.58;;;14.80;76.20;;;;;;5064895;28;20556;-65
2023/04/27 10:27:54;;;;;;;15.43;14.13;;;14.90;75.30;;;;;;5080467;28;20047;-66
2023/04/27 10:30:21;;;;;;;15.40;14.20;;;15.10;76.90;;;;;;5081207;28;20087;-66
2023/04/27 10:32:55;;;;;;;15.07;13.70;;;15.40;76.90;;;;;;5072886;28;20373;-66
2023/04/27 10:35:30;;;;;;;16.00;14.77;;;15.60;72.70;;;;;;5066177;28;20043;-66
2023/04/27 10:38:21;;;;;;;15.30;13.95;;;15.60;71.80;;;;;;5084033;28;20435;-66
2023/04/27 10:41:01;;;;;;;15.55;14.07;;;15.30;73.30;;;;;;5112785;27;20535;-66
2023/04/27 10:43:28;;;;;;;15.25;13.95;;;15.30;74.80;;;;;;5081536;28;20040;-66
2023/04/27 10:46:05;;;;;;;18.67;17.27;;;15.40;74.00;;;;;;5085534;28;20032;-65
2023/04/27 10:48:31;;;;;;;15.57;14.27;;;15.40;71.00;;;;;;5103512;28;20547;-66
2023/04/27 10:50:58;;;;;;;18.40;16.80;;;15.20;72.20;;;;;;5080247;28;20044;-66
2023/04/27 10:53:24;;;;;;;17.48;16.13;;;15.10;71.50;;;;;;5097131;28;20491;-66
2023/04/27 10:55:55;;;;;;;18.48;17.05;;;14.70;71.30;;;;;;5099459;28;20042;-66
2023/04/27 10:58:23;;;;;;;15.70;14.30;;;14.40;71.90;;;;;;5086012;28;20036;-66
2023/04/27 11:00:49;;;;;;;15.32;13.95;;;14.30;74.10;;;;;;5075121;28;20518;-66
2023/04/27 11:03:19;;;;;;;14.68;13.48;;;14.30;74.10;;;;;;5074534;28;20083;-66
2023/04/27 11:05:45;;;;;;;17.15;15.75;;;14.40;74.50;;;;;;5077612;28;20091;-66
2023/04/27 11:08:14;;;;;;;16.63;15.23;;;14.40;72.10;;;;;;5071375;28;20142;-65
2023/04/27 11:10:43;;;;;;;17.58;16.13;;;14.30;71.90;;;;;;5073521;28;20040;-66
2023/04/27 11:13:38;;;;;;;16.42;15.02;;;14.20;76.40;;;;;;5076111;28;20036;-66
2023/04/27 11:16:04;;;;;;;17.42;15.90;;;14.20;75.70;;;;;;4990794;28;20046;-66
2023/04/27 11:18:31;;;;;;;16.40;14.80;;;14.30;77.60;;;;;;4972755;28;20128;-66
2023/04/27 11:21:12;;;;;;;16.85;15.40;;;14.40;74.10;;;;;;4968764;28;20054;-66
2023/04/27 11:23:38;;;;;;;19.25;17.55;;;14.40;73.00;;;;;;4979409;28;20496;-66
2023/04/27 11:26:25;;;;;;;19.13;17.38;;;14.30;75.60;;;;;;4988388;28;20054;-66
2023/04/27 11:29:10;;;;;;;16.15;14.57;;;14.40;77.80;;;;;;4990801;28;20046;-65
2023/04/27 11:31:40;;;;;;;17.08;15.43;;;14.60;75.60;;;;;;4992249;28;20073;-65
2023/04/27 11:34:07;;;;;;;17.77;16.17;;;14.50;74.30;;;;;;5000852;28;20042;-65
2023/04/27 11:36:32;;;;;;;16.25;14.80;;;14.40;75.20;;;;;;5001097;28;20049;-66
2023/04/27 11:38:58;;;;;;;16.60;15.10;;;14.20;75.00;;;;;;4997623;28;20050;-66
2023/04/27 11:41:35;;;;;;;17.73;15.93;;;14.00;74.70;;;;;;5010357;28;20131;-66
2023/04/27 11:44:10;;;;;;;20.30;18.35;;;13.90;75.50;;;;;;4998074;28;20448;-66
2023/04/27 11:46:36;;;;;;;18.42;16.27;;;13.70;73.80;;;;;;4973701;28;20054;-65
2023/04/27 11:49:07;;;;;;;18.13;16.33;;;13.40;73.90;;;;;;4981460;28;20136;-66
2023/04/27 11:51:33;;;;;;;18.73;16.92;;;13.20;73.50;;;;;;5014554;28;20061;-65
2023/04/27 11:54:04;;;;;;;20.30;18.35;;;13.00;73.70;;;;;;5062404;28;20039;-65
2023/04/27 11:56:35;;;;;;;19.95;18.15;;;12.80;74.80;;;;;;5086095;28;20453;-66
2023/04/27 11:59:01;;;;;;;19.15;17.48;;;12.80;76.10;;;;;;5104805;28;20128;-66
2023/04/27 12:01:27;;;;;;;21.65;19.70;;;12.80;75.80;;;;;;5071226;28;20039;-65
2023/04/27 12:03:52;;;;;;;20.48;18.27;;;12.70;76.10;;;;;;5071783;28;20096;-66
2023/04/27 12:06:28;;;;;;;19.98;18.05;;;12.60;75.20;;;;;;5087104;28;20494;-66
2023/04/27 12:08:57;;;;;;;19.42;17.60;;;12.50;76.10;;;;;;5081984;28;20047;-66
2023/04/27 12:11:25;;;;;;;19.90;18.10;;;12.40;76.40;;;;;;5093073;28;20457;-65
2023/04/27 12:13:51;;;;;;;20.25;18.70;;;12.40;76.00;;;;;;5091969;28;20043;-66
2023/04/27 12:16:17;;;;;;;19.30;17.70;;;12.30;78.00;;;;;;5108694;27;20048;-66
2023/04/27 12:18:42;;;;;;;19.42;17.80;;;12.30;78.30;;;;;;5088202;28;20093;-65
2023/04/27 12:21:09;;;;;;;18.92;17.42;;;12.40;78.60;;;;;;5085829;28;20040;-65
2023/04/27 12:23:35;;;;;;;23.20;21.67;;;12.40;77.90;;;;;;5099532;28;20136;-67
2023/04/27 12:26:01;;;;;;;23.63;22.13;;;12.30;80.70;;;;;;5093611;28;20093;-65